Terminal Aerodrome Forecast
Issued by NWS

Home | Current Version | Previous Version | Graphics & Text | Print | Product List | Glossary On
Versions: 1 2 3 4 5 6 7 8 9 10 11 12 13 14 15 16 17 18 19 20 21 22
000
FTUS43 KMPX 301214 AAA
TAFRWF
TAF AMD
KRWF 301214Z 3012/3112 18010KT P6SM OVC008
     FM301500 19010KT P6SM SCT200
     FM301700 19014G22KT P6SM FEW200
     FM310000 18010KT P6SM SKC=

USA.gov is the U.S. government's official web portal to all federal, state and local government web resources and services.